sensor_id;sensor_type;location;lat;lon;timestamp;temperature;humidity
8220;DHT22;4151;51.110;7.020;2023-04-25T00:00:40;4.70;99.90
8220;DHT22;4151;51.110;7.020;2023-04-25T00:03:06;4.60;99.90
8220;DHT22;4151;51.110;7.020;2023-04-25T00:05:31;4.60;99.90
8220;DHT22;4151;51.110;7.020;2023-04-25T00:07:57;4.60;99.90
8220;DHT22;4151;51.110;7.020;2023-04-25T00:10:23;4.60;99.90
8220;DHT22;4151;51.110;7.020;2023-04-25T00:12:49;4.60;99.90
8220;DHT22;4151;51.110;7.020;2023-04-25T00:15:14;4.50;99.90
8220;DHT22;4151;51.110;7.020;2023-04-25T00:17:40;4.50;99.90
8220;DHT22;4151;51.110;7.020;2023-04-25T00:20:06;4.40;99.90
8220;DHT22;4151;51.110;7.020;2023-04-25T00:22:35;4.40;99.90
8220;DHT22;4151;51.110;7.020;2023-04-25T00:25:03;4.40;99.90
8220;DHT22;4151;51.110;7.020;2023-04-25T00:27:29;4.30;99.90
8220;DHT22;4151;51.110;7.020;2023-04-25T00:29:54;4.30;99.90
8220;DHT22;4151;51.110;7.020;2023-04-25T00:32:20;4.30;99.90
8220;DHT22;4151;51.110;7.020;2023-04-25T00:34:45;4.40;99.90
8220;DHT22;4151;51.110;7.020;2023-04-25T00:37:11;4.50;99.90
8220;DHT22;4151;51.110;7.020;2023-04-25T00:39:37;4.60;99.90
8220;DHT22;4151;51.110;7.020;2023-04-25T00:42:03;4.70;99.90
8220;DHT22;4151;51.110;7.020;2023-04-25T00:44:30;4.80;99.90
8220;DHT22;4151;51.110;7.020;2023-04-25T00:46:57;4.90;99.90
8220;DHT22;4151;51.110;7.020;2023-04-25T00:49:23;5.00;99.90
8220;DHT22;4151;51.110;7.020;2023-04-25T00:51:48;5.10;99.90
8220;DHT22;4151;51.110;7.020;2023-04-25T00:54:15;5.20;99.90
8220;DHT22;4151;51.110;7.020;2023-04-25T00:56:41;5.30;99.90
8220;DHT22;4151;51.110;7.020;2023-04-25T00:59:09;5.40;99.90
8220;DHT22;4151;51.110;7.020;2023-04-25T01:01:35;5.40;99.90
8220;DHT22;4151;51.110;7.020;2023-04-25T01:04:01;5.40;99.90
8220;DHT22;4151;51.110;7.020;2023-04-25T01:06:26;5.50;99.90
8220;DHT22;4151;51.110;7.020;2023-04-25T01:08:53;5.50;99.90
8220;DHT22;4151;51.110;7.020;2023-04-25T01:11:19;5.50;99.90
8220;DHT22;4151;51.110;7.020;2023-04-25T01:13:45;5.50;99.90
8220;DHT22;4151;51.110;7.020;2023-04-25T01:16:10;5.50;99.90
8220;DHT22;4151;51.110;7.020;2023-04-25T01:18:40;5.50;99.90
8220;DHT22;4151;51.110;7.020;2023-04-25T01:21:10;5.60;99.90
8220;DHT22;4151;51.110;7.020;2023-04-25T01:23:37;5.60;99.90
8220;DHT22;4151;51.110;7.020;2023-04-25T01:26:04;5.70;99.90
8220;DHT22;4151;51.110;7.020;2023-04-25T01:28:30;5.70;99.90
8220;DHT22;4151;51.110;7.020;2023-04-25T01:30:57;5.80;99.90
8220;DHT22;4151;51.110;7.020;2023-04-25T01:33:22;5.80;99.90
8220;DHT22;4151;51.110;7.020;2023-04-25T01:35:48;5.90;99.90
8220;DHT22;4151;51.110;7.020;2023-04-25T01:38:14;5.90;99.90
8220;DHT22;4151;51.110;7.020;2023-04-25T01:40:40;5.90;99.90
8220;DHT22;4151;51.110;7.020;2023-04-25T01:43:07;5.90;99.90
8220;DHT22;4151;51.110;7.020;2023-04-25T01:45:36;6.00;99.90
8220;DHT22;4151;51.110;7.020;2023-04-25T01:48:04;6.10;99.90
8220;DHT22;4151;51.110;7.020;2023-04-25T01:50:30;6.10;99.90
8220;DHT22;4151;51.110;7.020;2023-04-25T01:52:56;6.20;99.90
8220;DHT22;4151;51.110;7.020;2023-04-25T01:55:22;6.20;99.90
8220;DHT22;4151;51.110;7.020;2023-04-25T01:57:47;6.30;99.90
8220;DHT22;4151;51.110;7.020;2023-04-25T02:00:13;6.30;99.90
8220;DHT22;4151;51.110;7.020;2023-04-25T02:02:39;6.30;99.90
8220;DHT22;4151;51.110;7.020;2023-04-25T02:05:05;6.20;99.90
8220;DHT22;4151;51.110;7.020;2023-04-25T02:07:31;6.20;99.90
8220;DHT22;4151;51.110;7.020;2023-04-25T02:09:57;6.10;99.90
8220;DHT22;4151;51.110;7.020;2023-04-25T02:12:23;6.10;99.90
8220;DHT22;4151;51.110;7.020;2023-04-25T02:14:48;6.00;99.90
8220;DHT22;4151;51.110;7.020;2023-04-25T02:17:14;6.00;99.90
8220;DHT22;4151;51.110;7.020;2023-04-25T02:19:39;6.00;99.90
8220;DHT22;4151;51.110;7.020;2023-04-25T02:22:05;6.00;99.90
8220;DHT22;4151;51.110;7.020;2023-04-25T02:24:30;6.10;99.90
8220;DHT22;4151;51.110;7.020;2023-04-25T02:26:57;6.10;99.90
8220;DHT22;4151;51.110;7.020;2023-04-25T02:29:23;6.10;99.90
8220;DHT22;4151;51.110;7.020;2023-04-25T02:31:48;6.20;99.90
8220;DHT22;4151;51.110;7.020;2023-04-25T02:34:14;6.20;99.90
8220;DHT22;4151;51.110;7.020;2023-04-25T02:36:39;6.20;99.90
8220;DHT22;4151;51.110;7.020;2023-04-25T02:39:05;6.20;99.90
8220;DHT22;4151;51.110;7.020;2023-04-25T02:41:30;6.20;99.90
8220;DHT22;4151;51.110;7.020;2023-04-25T02:43:56;6.20;99.90
8220;DHT22;4151;51.110;7.020;2023-04-25T02:46:22;6.20;99.90
8220;DHT22;4151;51.110;7.020;2023-04-25T02:48:47;6.20;99.90
8220;DHT22;4151;51.110;7.020;2023-04-25T02:51:13;6.20;99.90
8220;DHT22;4151;51.110;7.020;2023-04-25T02:53:39;6.20;99.90
8220;DHT22;4151;51.110;7.020;2023-04-25T02:56:05;6.20;99.90
8220;DHT22;4151;51.110;7.020;2023-04-25T02:58:30;6.30;99.90
8220;DHT22;4151;51.110;7.020;2023-04-25T03:00:56;6.20;99.90
8220;DHT22;4151;51.110;7.020;2023-04-25T03:03:21;6.30;99.90
8220;DHT22;4151;51.110;7.020;2023-04-25T03:05:50;6.30;99.90
8220;DHT22;4151;51.110;7.020;2023-04-25T03:08:19;6.30;99.90
8220;DHT22;4151;51.110;7.020;2023-04-25T03:10:45;6.30;99.90
8220;DHT22;4151;51.110;7.020;2023-04-25T03:13:11;6.30;99.90
8220;DHT22;4151;51.110;7.020;2023-04-25T03:15:37;6.30;99.90
8220;DHT22;4151;51.110;7.020;2023-04-25T03:18:03;6.30;99.90
8220;DHT22;4151;51.110;7.020;2023-04-25T03:20:29;6.30;99.90
8220;DHT22;4151;51.110;7.020;2023-04-25T03:22:55;6.30;99.90
8220;DHT22;4151;51.110;7.020;2023-04-25T03:25:20;6.30;99.90
8220;DHT22;4151;51.110;7.020;2023-04-25T03:27:46;6.30;99.90
8220;DHT22;4151;51.110;7.020;2023-04-25T03:30:12;6.30;99.90
8220;DHT22;4151;51.110;7.020;2023-04-25T03:32:37;6.30;99.90
8220;DHT22;4151;51.110;7.020;2023-04-25T03:35:03;6.30;99.90
8220;DHT22;4151;51.110;7.020;2023-04-25T03:37:29;6.30;99.90
8220;DHT22;4151;51.110;7.020;2023-04-25T03:39:54;6.30;99.90
8220;DHT22;4151;51.110;7.020;2023-04-25T03:42:20;6.20;99.90
8220;DHT22;4151;51.110;7.020;2023-04-25T03:44:48;6.30;99.90
8220;DHT22;4151;51.110;7.020;2023-04-25T03:47:14;6.30;99.90
8220;DHT22;4151;51.110;7.020;2023-04-25T03:49:39;6.30;99.90
8220;DHT22;4151;51.110;7.020;2023-04-25T03:52:05;6.30;99.90
8220;DHT22;4151;51.110;7.020;2023-04-25T03:54:30;6.30;99.90
8220;DHT22;4151;51.110;7.020;2023-04-25T03:56:56;6.30;99.90
8220;DHT22;4151;51.110;7.020;2023-04-25T03:59:21;6.30;99.90
8220;DHT22;4151;51.110;7.020;2023-04-25T04:01:47;6.30;99.90
8220;DHT22;4151;51.110;7.020;2023-04-25T04:04:12;6.40;99.90
8220;DHT22;4151;51.110;7.020;2023-04-25T04:06:39;6.40;99.90
8220;DHT22;4151;51.110;7.020;2023-04-25T04:09:05;6.50;99.90
8220;DHT22;4151;51.110;7.020;2023-04-25T04:11:34;6.50;99.90
8220;DHT22;4151;51.110;7.020;2023-04-25T04:14:02;6.40;99.90
8220;DHT22;4151;51.110;7.020;2023-04-25T04:16:27;6.40;99.90
8220;DHT22;4151;51.110;7.020;2023-04-25T04:18:53;6.40;99.90
8220;DHT22;4151;51.110;7.020;2023-04-25T04:21:18;6.50;99.90
8220;DHT22;4151;51.110;7.020;2023-04-25T04:23:44;6.50;99.90
8220;DHT22;4151;51.110;7.020;2023-04-25T04:26:10;6.50;99.90
8220;DHT22;4151;51.110;7.020;2023-04-25T04:28:36;6.50;99.90
8220;DHT22;4151;51.110;7.020;2023-04-25T04:31:03;6.50;99.90
8220;DHT22;4151;51.110;7.020;2023-04-25T04:41:44;6.50;99.90
8220;DHT22;4151;51.110;7.020;2023-04-25T04:44:10;6.50;99.90
8220;DHT22;4151;51.110;7.020;2023-04-25T04:46:36;6.50;99.90
8220;DHT22;4151;51.110;7.020;2023-04-25T04:49:08;6.50;99.90
8220;DHT22;4151;51.110;7.020;2023-04-25T04:51:34;6.50;99.90
8220;DHT22;4151;51.110;7.020;2023-04-25T04:54:00;6.40;99.90
8220;DHT22;4151;51.110;7.020;2023-04-25T04:56:31;6.30;99.90
8220;DHT22;4151;51.110;7.020;2023-04-25T04:58:57;6.30;99.90
8220;DHT22;4151;51.110;7.020;2023-04-25T05:01:23;6.30;99.90
8220;DHT22;4151;51.110;7.020;2023-04-25T05:03:49;6.20;99.90
8220;DHT22;4151;51.110;7.020;2023-04-25T05:06:16;6.20;99.90
8220;DHT22;4151;51.110;7.020;2023-04-25T05:08:42;6.20;99.90
8220;DHT22;4151;51.110;7.020;2023-04-25T05:11:07;6.20;99.90
8220;DHT22;4151;51.110;7.020;2023-04-25T05:13:33;6.10;99.90
8220;DHT22;4151;51.110;7.020;2023-04-25T05:15:58;6.10;99.90
8220;DHT22;4151;51.110;7.020;2023-04-25T05:18:24;6.10;99.90
8220;DHT22;4151;51.110;7.020;2023-04-25T05:20:50;6.10;99.90
8220;DHT22;4151;51.110;7.020;2023-04-25T05:23:15;6.10;99.90
8220;DHT22;4151;51.110;7.020;2023-04-25T05:25:41;6.10;99.90
8220;DHT22;4151;51.110;7.020;2023-04-25T05:28:07;6.10;99.90
8220;DHT22;4151;51.110;7.020;2023-04-25T05:30:34;6.10;99.90
8220;DHT22;4151;51.110;7.020;2023-04-25T05:32:59;6.20;99.90
8220;DHT22;4151;51.110;7.020;2023-04-25T05:35:25;6.20;99.90
8220;DHT22;4151;51.110;7.020;2023-04-25T05:37:51;6.30;99.90
8220;DHT22;4151;51.110;7.020;2023-04-25T05:40:17;6.30;99.90
8220;DHT22;4151;51.110;7.020;2023-04-25T05:42:42;6.40;99.90
8220;DHT22;4151;51.110;7.020;2023-04-25T05:45:08;6.50;99.90
8220;DHT22;4151;51.110;7.020;2023-04-25T05:47:34;6.50;99.90
8220;DHT22;4151;51.110;7.020;2023-04-25T05:49:59;6.60;99.90
8220;DHT22;4151;51.110;7.020;2023-04-25T05:52:25;6.60;99.90
8220;DHT22;4151;51.110;7.020;2023-04-25T05:54:50;6.70;99.90
8220;DHT22;4151;51.110;7.020;2023-04-25T05:57:25;6.70;99.90
8220;DHT22;4151;51.110;7.020;2023-04-25T05:59:51;6.90;99.90
8220;DHT22;4151;51.110;7.020;2023-04-25T06:02:18;6.90;99.90
8220;DHT22;4151;51.110;7.020;2023-04-25T06:04:44;7.00;99.90
8220;DHT22;4151;51.110;7.020;2023-04-25T06:07:10;7.10;99.90
8220;DHT22;4151;51.110;7.020;2023-04-25T06:09:35;7.10;99.90
8220;DHT22;4151;51.110;7.020;2023-04-25T06:12:01;7.20;99.90
8220;DHT22;4151;51.110;7.020;2023-04-25T06:14:27;7.30;99.90
8220;DHT22;4151;51.110;7.020;2023-04-25T06:16:52;7.40;99.90
8220;DHT22;4151;51.110;7.020;2023-04-25T06:19:18;7.50;99.90
8220;DHT22;4151;51.110;7.020;2023-04-25T06:21:44;7.60;99.90
8220;DHT22;4151;51.110;7.020;2023-04-25T06:24:09;7.70;99.90
8220;DHT22;4151;51.110;7.020;2023-04-25T06:26:35;7.80;99.90
8220;DHT22;4151;51.110;7.020;2023-04-25T06:29:01;7.80;99.90
8220;DHT22;4151;51.110;7.020;2023-04-25T06:31:26;7.80;99.90
8220;DHT22;4151;51.110;7.020;2023-04-25T06:33:52;7.80;99.90
8220;DHT22;4151;51.110;7.020;2023-04-25T06:36:23;8.00;99.90
8220;DHT22;4151;51.110;7.020;2023-04-25T06:38:51;8.10;99.90
8220;DHT22;4151;51.110;7.020;2023-04-25T06:41:17;8.10;99.90
8220;DHT22;4151;51.110;7.020;2023-04-25T06:43:43;8.10;99.90
8220;DHT22;4151;51.110;7.020;2023-04-25T06:46:08;8.30;99.90
8220;DHT22;4151;51.110;7.020;2023-04-25T06:48:34;8.30;99.90
8220;DHT22;4151;51.110;7.020;2023-04-25T06:51:00;8.40;99.90
8220;DHT22;4151;51.110;7.020;2023-04-25T06:53:25;8.50;99.90
8220;DHT22;4151;51.110;7.020;2023-04-25T06:55:51;8.60;99.90
8220;DHT22;4151;51.110;7.020;2023-04-25T06:58:17;8.50;99.90
8220;DHT22;4151;51.110;7.020;2023-04-25T07:00:43;8.60;99.90
8220;DHT22;4151;51.110;7.020;2023-04-25T07:03:08;8.60;99.90
8220;DHT22;4151;51.110;7.020;2023-04-25T07:05:34;8.70;99.90
8220;DHT22;4151;51.110;7.020;2023-04-25T07:08:00;8.50;99.90
8220;DHT22;4151;51.110;7.020;2023-04-25T07:10:26;8.60;99.90
8220;DHT22;4151;51.110;7.020;2023-04-25T07:12:51;8.70;99.90
8220;DHT22;4151;51.110;7.020;2023-04-25T07:15:17;8.80;99.90
8220;DHT22;4151;51.110;7.020;2023-04-25T07:17:42;8.90;99.90
8220;DHT22;4151;51.110;7.020;2023-04-25T07:20:08;8.90;99.90
8220;DHT22;4151;51.110;7.020;2023-04-25T07:22:35;9.00;99.90
8220;DHT22;4151;51.110;7.020;2023-04-25T07:25:00;9.10;99.90
8220;DHT22;4151;51.110;7.020;2023-04-25T07:27:26;9.20;99.90
8220;DHT22;4151;51.110;7.020;2023-04-25T07:29:52;9.40;99.90
8220;DHT22;4151;51.110;7.020;2023-04-25T07:32:17;9.30;99.90
8220;DHT22;4151;51.110;7.020;2023-04-25T07:34:43;9.30;99.90
8220;DHT22;4151;51.110;7.020;2023-04-25T07:37:08;9.40;99.90
8220;DHT22;4151;51.110;7.020;2023-04-25T07:39:34;9.70;99.90
8220;DHT22;4151;51.110;7.020;2023-04-25T07:42:00;10.00;99.90
8220;DHT22;4151;51.110;7.020;2023-04-25T07:44:27;10.00;99.90
8220;DHT22;4151;51.110;7.020;2023-04-25T07:46:53;10.00;99.90
8220;DHT22;4151;51.110;7.020;2023-04-25T07:49:18;10.00;99.90
8220;DHT22;4151;51.110;7.020;2023-04-25T07:51:44;10.10;99.90
8220;DHT22;4151;51.110;7.020;2023-04-25T07:54:12;10.00;99.90
8220;DHT22;4151;51.110;7.020;2023-04-25T07:56:37;10.10;99.90
8220;DHT22;4151;51.110;7.020;2023-04-25T07:59:03;10.00;99.90
8220;DHT22;4151;51.110;7.020;2023-04-25T08:01:28;10.10;99.90
8220;DHT22;4151;51.110;7.020;2023-04-25T08:03:54;10.40;99.90
8220;DHT22;4151;51.110;7.020;2023-04-25T08:06:19;10.30;99.90
8220;DHT22;4151;51.110;7.020;2023-04-25T08:08:45;10.00;99.90
8220;DHT22;4151;51.110;7.020;2023-04-25T08:11:11;9.60;99.90
8220;DHT22;4151;51.110;7.020;2023-04-25T08:13:37;9.40;99.90
8220;DHT22;4151;51.110;7.020;2023-04-25T08:16:02;9.20;99.90
8220;DHT22;4151;51.110;7.020;2023-04-25T08:18:28;9.00;99.90
8220;DHT22;4151;51.110;7.020;2023-04-25T08:20:53;8.80;99.90
8220;DHT22;4151;51.110;7.020;2023-04-25T08:23:19;8.70;99.90
8220;DHT22;4151;51.110;7.020;2023-04-25T08:25:44;8.70;99.90
8220;DHT22;4151;51.110;7.020;2023-04-25T08:28:10;8.80;99.90
8220;DHT22;4151;51.110;7.020;2023-04-25T08:30:36;8.80;99.90
8220;DHT22;4151;51.110;7.020;2023-04-25T08:33:02;8.90;99.90
8220;DHT22;4151;51.110;7.020;2023-04-25T08:35:28;8.90;99.90
8220;DHT22;4151;51.110;7.020;2023-04-25T08:37:53;8.80;99.90
8220;DHT22;4151;51.110;7.020;2023-04-25T08:40:22;8.80;99.90
8220;DHT22;4151;51.110;7.020;2023-04-25T08:42:53;8.90;99.90
8220;DHT22;4151;51.110;7.020;2023-04-25T08:45:19;9.00;99.90
8220;DHT22;4151;51.110;7.020;2023-04-25T08:47:45;9.10;99.90
8220;DHT22;4151;51.110;7.020;2023-04-25T08:50:11;9.50;99.90
8220;DHT22;4151;51.110;7.020;2023-04-25T08:52:40;9.30;99.90
8220;DHT22;4151;51.110;7.020;2023-04-25T08:55:09;9.40;99.90
8220;DHT22;4151;51.110;7.020;2023-04-25T08:57:35;9.60;99.90
8220;DHT22;4151;51.110;7.020;2023-04-25T09:00:01;9.70;99.90
8220;DHT22;4151;51.110;7.020;2023-04-25T09:02:27;10.40;99.90
8220;DHT22;4151;51.110;7.020;2023-04-25T09:04:54;10.30;99.90
8220;DHT22;4151;51.110;7.020;2023-04-25T09:07:20;9.80;99.90
8220;DHT22;4151;51.110;7.020;2023-04-25T09:09:46;9.60;99.90
8220;DHT22;4151;51.110;7.020;2023-04-25T09:12:12;9.70;99.90
8220;DHT22;4151;51.110;7.020;2023-04-25T09:14:38;9.80;99.90
8220;DHT22;4151;51.110;7.020;2023-04-25T09:17:04;9.90;99.90
8220;DHT22;4151;51.110;7.020;2023-04-25T09:19:36;9.90;99.90
8220;DHT22;4151;51.110;7.020;2023-04-25T09:22:04;9.90;99.90
8220;DHT22;4151;51.110;7.020;2023-04-25T09:24:38;10.10;99.90
8220;DHT22;4151;51.110;7.020;2023-04-25T09:27:09;10.70;99.90
8220;DHT22;4151;51.110;7.020;2023-04-25T09:29:37;10.80;99.90
8220;DHT22;4151;51.110;7.020;2023-04-25T09:32:23;10.60;99.90
8220;DHT22;4151;51.110;7.020;2023-04-25T09:34:56;9.80;99.90
8220;DHT22;4151;51.110;7.020;2023-04-25T09:37:24;9.80;99.90
8220;DHT22;4151;51.110;7.020;2023-04-25T09:39:56;10.10;99.90
8220;DHT22;4151;51.110;7.020;2023-04-25T09:42:23;11.50;99.90
8220;DHT22;4151;51.110;7.020;2023-04-25T09:44:51;12.90;99.90
8220;DHT22;4151;51.110;7.020;2023-04-25T09:47:17;13.60;99.90
8220;DHT22;4151;51.110;7.020;2023-04-25T09:49:43;13.00;99.90
8220;DHT22;4151;51.110;7.020;2023-04-25T09:52:16;12.40;99.90
8220;DHT22;4151;51.110;7.020;2023-04-25T09:54:43;11.70;99.90
8220;DHT22;4151;51.110;7.020;2023-04-25T09:57:19;11.60;99.90
8220;DHT22;4151;51.110;7.020;2023-04-25T09:59:46;12.30;99.90
8220;DHT22;4151;51.110;7.020;2023-04-25T10:02:17;12.20;99.90
8220;DHT22;4151;51.110;7.020;2023-04-25T10:04:48;12.10;99.90
8220;DHT22;4151;51.110;7.020;2023-04-25T10:07:14;11.90;99.90
8220;DHT22;4151;51.110;7.020;2023-04-25T10:09:41;11.90;99.90
8220;DHT22;4151;51.110;7.020;2023-04-25T10:12:08;12.20;99.90
8220;DHT22;4151;51.110;7.020;2023-04-25T10:24:35;12.10;99.90
8220;DHT22;4151;51.110;7.020;2023-04-25T10:27:02;11.80;99.90
8220;DHT22;4151;51.110;7.020;2023-04-25T10:29:28;11.60;99.90
8220;DHT22;4151;51.110;7.020;2023-04-25T10:31:53;11.30;99.90
8220;DHT22;4151;51.110;7.020;2023-04-25T10:34:24;10.80;99.90
8220;DHT22;4151;51.110;7.020;2023-04-25T10:36:52;10.50;99.90
8220;DHT22;4151;51.110;7.020;2023-04-25T10:39:24;10.10;99.90
8220;DHT22;4151;51.110;7.020;2023-04-25T10:41:55;9.90;99.90
8220;DHT22;4151;51.110;7.020;2023-04-25T10:44:21;10.10;99.90
8220;DHT22;4151;51.110;7.020;2023-04-25T10:46:46;10.40;99.90
8220;DHT22;4151;51.110;7.020;2023-04-25T10:54:55;11.00;99.90
8220;DHT22;4151;51.110;7.020;2023-04-25T11:00:05;11.30;99.90
8220;DHT22;4151;51.110;7.020;2023-04-25T11:02:32;11.30;99.90
8220;DHT22;4151;51.110;7.020;2023-04-25T11:05:02;11.30;99.90
8220;DHT22;4151;51.110;7.020;2023-04-25T11:09:56;11.30;99.90
8220;DHT22;4151;51.110;7.020;2023-04-25T11:12:24;11.50;99.90
8220;DHT22;4151;51.110;7.020;2023-04-25T11:14:50;11.90;99.90
8220;DHT22;4151;51.110;7.020;2023-04-25T11:17:15;12.20;99.90
8220;DHT22;4151;51.110;7.020;2023-04-25T11:19:41;13.00;99.90
8220;DHT22;4151;51.110;7.020;2023-04-25T11:22:06;13.40;99.90
8220;DHT22;4151;51.110;7.020;2023-04-25T11:24:34;13.90;99.90
8220;DHT22;4151;51.110;7.020;2023-04-25T11:27:04;14.50;99.90
8220;DHT22;4151;51.110;7.020;2023-04-25T11:29:32;14.40;99.90
8220;DHT22;4151;51.110;7.020;2023-04-25T11:31:58;13.90;99.90
8220;DHT22;4151;51.110;7.020;2023-04-25T11:34:25;14.00;99.90
8220;DHT22;4151;51.110;7.020;2023-04-25T11:36:51;13.40;99.90
8220;DHT22;4151;51.110;7.020;2023-04-25T11:39:20;14.10;99.90
8220;DHT22;4151;51.110;7.020;2023-04-25T11:41:46;14.70;99.90
8220;DHT22;4151;51.110;7.020;2023-04-25T11:44:15;16.30;99.90
8220;DHT22;4151;51.110;7.020;2023-04-25T11:46:42;17.00;96.50
8220;DHT22;4151;51.110;7.020;2023-04-25T11:49:08;16.90;93.90
8220;DHT22;4151;51.110;7.020;2023-04-25T11:54:05;13.90;98.80
8220;DHT22;4151;51.110;7.020;2023-04-25T11:56:31;13.90;99.90
8220;DHT22;4151;51.110;7.020;2023-04-25T11:59:02;13.90;99.90
8220;DHT22;4151;51.110;7.020;2023-04-25T12:01:39;14.30;99.90
8220;DHT22;4151;51.110;7.020;2023-04-25T12:04:22;15.70;99.50
8220;DHT22;4151;51.110;7.020;2023-04-25T12:06:49;15.70;96.10
8220;DHT22;4151;51.110;7.020;2023-04-25T12:09:19;15.80;95.30
8220;DHT22;4151;51.110;7.020;2023-04-25T12:11:54;15.20;94.80
8220;DHT22;4151;51.110;7.020;2023-04-25T12:14:27;14.00;96.50
8220;DHT22;4151;51.110;7.020;2023-04-25T12:17:01;14.20;97.60
8220;DHT22;4151;51.110;7.020;2023-04-25T12:19:32;14.20;95.50
8220;DHT22;4151;51.110;7.020;2023-04-25T12:22:00;13.40;97.10
8220;DHT22;4151;51.110;7.020;2023-04-25T12:24:27;13.50;98.60
8220;DHT22;4151;51.110;7.020;2023-04-25T12:26:53;12.90;99.90
8220;DHT22;4151;51.110;7.020;2023-04-25T12:29:22;13.30;99.90
8220;DHT22;4151;51.110;7.020;2023-04-25T12:31:48;13.30;99.90
8220;DHT22;4151;51.110;7.020;2023-04-25T12:34:15;12.80;99.90
8220;DHT22;4151;51.110;7.020;2023-04-25T12:36:40;12.90;99.90
8220;DHT22;4151;51.110;7.020;2023-04-25T12:39:06;12.80;99.90
8220;DHT22;4151;51.110;7.020;2023-04-25T12:41:33;12.60;99.90
8220;DHT22;4151;51.110;7.020;2023-04-25T12:43:59;12.30;99.90
8220;DHT22;4151;51.110;7.020;2023-04-25T12:46:24;12.00;99.90
8220;DHT22;4151;51.110;7.020;2023-04-25T12:48:50;12.00;99.90
8220;DHT22;4151;51.110;7.020;2023-04-25T12:51:16;11.80;99.90
8220;DHT22;4151;51.110;7.020;2023-04-25T12:53:41;11.70;99.90
8220;DHT22;4151;51.110;7.020;2023-04-25T12:56:08;11.60;99.90
8220;DHT22;4151;51.110;7.020;2023-04-25T12:58:34;11.30;99.90
8220;DHT22;4151;51.110;7.020;2023-04-25T13:01:00;11.20;99.90
8220;DHT22;4151;51.110;7.020;2023-04-25T13:03:26;10.90;99.90
8220;DHT22;4151;51.110;7.020;2023-04-25T13:05:52;10.60;99.90
8220;DHT22;4151;51.110;7.020;2023-04-25T13:08:18;10.30;99.90
8220;DHT22;4151;51.110;7.020;2023-04-25T13:10:44;9.80;99.90
8220;DHT22;4151;51.110;7.020;2023-04-25T13:13:09;9.40;99.90
8220;DHT22;4151;51.110;7.020;2023-04-25T13:15:35;9.00;99.90
8220;DHT22;4151;51.110;7.020;2023-04-25T13:18:02;8.90;99.90
8220;DHT22;4151;51.110;7.020;2023-04-25T13:20:28;9.20;99.90
8220;DHT22;4151;51.110;7.020;2023-04-25T13:22:54;10.10;99.90
8220;DHT22;4151;51.110;7.020;2023-04-25T13:25:20;11.30;99.90
8220;DHT22;4151;51.110;7.020;2023-04-25T13:27:47;12.80;99.90
8220;DHT22;4151;51.110;7.020;2023-04-25T13:30:12;14.70;99.90
8220;DHT22;4151;51.110;7.020;2023-04-25T13:32:39;16.30;99.90
8220;DHT22;4151;51.110;7.020;2023-04-25T13:35:07;18.00;99.90
8220;DHT22;4151;51.110;7.020;2023-04-25T13:37:32;18.90;99.90
8220;DHT22;4151;51.110;7.020;2023-04-25T13:40:02;20.20;99.90
8220;DHT22;4151;51.110;7.020;2023-04-25T13:42:31;20.30;99.90
8220;DHT22;4151;51.110;7.020;2023-04-25T13:44:57;20.80;99.90
8220;DHT22;4151;51.110;7.020;2023-04-25T13:47:23;21.30;99.90
8220;DHT22;4151;51.110;7.020;2023-04-25T13:49:50;19.10;99.90
8220;DHT22;4151;51.110;7.020;2023-04-25T13:52:15;15.90;99.90
8220;DHT22;4151;51.110;7.020;2023-04-25T13:54:41;13.50;99.90
8220;DHT22;4151;51.110;7.020;2023-04-25T13:57:07;12.70;99.90
8220;DHT22;4151;51.110;7.020;2023-04-25T13:59:32;11.70;99.90
8220;DHT22;4151;51.110;7.020;2023-04-25T14:01:58;11.40;99.90
8220;DHT22;4151;51.110;7.020;2023-04-25T14:04:24;11.40;99.90
8220;DHT22;4151;51.110;7.020;2023-04-25T14:06:50;11.70;99.90
8220;DHT22;4151;51.110;7.020;2023-04-25T14:09:16;12.00;99.90
8220;DHT22;4151;51.110;7.020;2023-04-25T14:11:42;12.10;99.90
8220;DHT22;4151;51.110;7.020;2023-04-25T14:14:08;12.80;99.90
8220;DHT22;4151;51.110;7.020;2023-04-25T14:16:34;13.30;99.90
8220;DHT22;4151;51.110;7.020;2023-04-25T14:19:00;13.50;99.90
8220;DHT22;4151;51.110;7.020;2023-04-25T14:21:26;13.60;99.90
8220;DHT22;4151;51.110;7.020;2023-04-25T14:23:52;15.70;99.90
8220;DHT22;4151;51.110;7.020;2023-04-25T14:26:18;17.30;99.90
8220;DHT22;4151;51.110;7.020;2023-04-25T14:28:43;16.50;99.90
8220;DHT22;4151;51.110;7.020;2023-04-25T14:31:09;15.10;99.90
8220;DHT22;4151;51.110;7.020;2023-04-25T14:33:35;14.50;99.90
8220;DHT22;4151;51.110;7.020;2023-04-25T14:36:00;14.30;99.90
8220;DHT22;4151;51.110;7.020;2023-04-25T14:38:26;14.10;99.90
8220;DHT22;4151;51.110;7.020;2023-04-25T14:40:52;13.50;99.90
8220;DHT22;4151;51.110;7.020;2023-04-25T14:43:19;15.20;99.90
8220;DHT22;4151;51.110;7.020;2023-04-25T14:45:45;16.50;99.90
8220;DHT22;4151;51.110;7.020;2023-04-25T14:48:10;17.00;99.90
8220;DHT22;4151;51.110;7.020;2023-04-25T14:50:36;17.30;99.90
8220;DHT22;4151;51.110;7.020;2023-04-25T14:53:02;18.20;99.90
8220;DHT22;4151;51.110;7.020;2023-04-25T14:55:27;17.40;99.90
8220;DHT22;4151;51.110;7.020;2023-04-25T14:57:54;16.50;99.90
8220;DHT22;4151;51.110;7.020;2023-04-25T15:00:20;15.80;99.90
8220;DHT22;4151;51.110;7.020;2023-04-25T15:02:48;15.80;99.90
8220;DHT22;4151;51.110;7.020;2023-04-25T15:05:13;15.50;99.90
8220;DHT22;4151;51.110;7.020;2023-04-25T15:07:39;15.20;99.90
8220;DHT22;4151;51.110;7.020;2023-04-25T15:10:09;14.90;99.90
8220;DHT22;4151;51.110;7.020;2023-04-25T15:12:45;14.50;99.90
8220;DHT22;4151;51.110;7.020;2023-04-25T15:15:11;13.90;99.90
8220;DHT22;4151;51.110;7.020;2023-04-25T15:17:43;13.30;99.90
8220;DHT22;4151;51.110;7.020;2023-04-25T15:20:10;13.30;99.90
8220;DHT22;4151;51.110;7.020;2023-04-25T15:22:40;12.70;99.90
8220;DHT22;4151;51.110;7.020;2023-04-25T15:25:06;12.60;99.90
8220;DHT22;4151;51.110;7.020;2023-04-25T15:27:35;12.40;99.90
8220;DHT22;4151;51.110;7.020;2023-04-25T15:30:13;12.70;99.90
8220;DHT22;4151;51.110;7.020;2023-04-25T15:32:41;14.40;99.90
8220;DHT22;4151;51.110;7.020;2023-04-25T15:35:07;15.30;99.90
8220;DHT22;4151;51.110;7.020;2023-04-25T15:37:34;15.10;99.90
8220;DHT22;4151;51.110;7.020;2023-04-25T15:40:05;14.80;99.90
8220;DHT22;4151;51.110;7.020;2023-04-25T15:42:35;14.10;99.90
8220;DHT22;4151;51.110;7.020;2023-04-25T15:45:05;13.00;99.90
8220;DHT22;4151;51.110;7.020;2023-04-25T15:47:31;11.90;99.90
8220;DHT22;4151;51.110;7.020;2023-04-25T15:49:57;11.50;99.90
8220;DHT22;4151;51.110;7.020;2023-04-25T15:52:23;11.50;99.90
8220;DHT22;4151;51.110;7.020;2023-04-25T15:54:49;11.50;99.90
8220;DHT22;4151;51.110;7.020;2023-04-25T15:57:14;11.30;99.90
8220;DHT22;4151;51.110;7.020;2023-04-25T15:59:40;11.10;99.90
8220;DHT22;4151;51.110;7.020;2023-04-25T16:02:06;10.70;99.90
8220;DHT22;4151;51.110;7.020;2023-04-25T16:04:32;10.60;99.90
8220;DHT22;4151;51.110;7.020;2023-04-25T16:07:01;10.60;99.90
8220;DHT22;4151;51.110;7.020;2023-04-25T16:09:28;10.70;99.90
8220;DHT22;4151;51.110;7.020;2023-04-25T16:11:54;10.60;99.90
8220;DHT22;4151;51.110;7.020;2023-04-25T16:14:21;10.40;99.90
8220;DHT22;4151;51.110;7.020;2023-04-25T16:16:46;10.40;99.90
8220;DHT22;4151;51.110;7.020;2023-04-25T16:19:12;10.60;99.90
8220;DHT22;4151;51.110;7.020;2023-04-25T16:21:38;11.00;99.90
8220;DHT22;4151;51.110;7.020;2023-04-25T16:24:03;12.20;99.90
8220;DHT22;4151;51.110;7.020;2023-04-25T16:26:29;14.10;99.90
8220;DHT22;4151;51.110;7.020;2023-04-25T16:28:54;16.10;99.90
8220;DHT22;4151;51.110;7.020;2023-04-25T16:31:20;17.50;99.90
8220;DHT22;4151;51.110;7.020;2023-04-25T16:33:46;16.60;99.90
8220;DHT22;4151;51.110;7.020;2023-04-25T16:36:11;16.00;99.90